Snyder, Missouri
Current Conditions -  °F | °C
As of 10:15 PM on Wednesday 22 Oct 2014 (Local Time) from KVER Reporting Station
Haze Haze  
Wind Chill: 53°   Ceiling: Unl
Heat Index: 53°   Visibility: 2.5mi
Dew Point: 43°   Wind: 7mph
Humidity: 70%   Direction: 120°ESE
Pressure: 30.18"   Gusts: NA
Location:  39.5082°N, 93.2104°W
Report Text: KVER 230315Z AUTO 12006KT 2 1/2SM HZ CLR 12/06 A3018 RMK AO2 T01150061
Loading
Personal Weather Stations






























Interactive Weather Map
Tropical Storm Tracking
New forecast layout! Learn more

10-Day Weather Forecast

Advertisements
Track Severe Weather on mobile